Time;durP1;ratioP1;P1;durP2;ratioP2;P2;SDS_P1;SDS_P2;PMS_P1;PMS_P2;Temp;Humidity;BMP_temperature;BMP_pressure;BME280_temperature;BME280_humidity;BME280_pressure;Samples;Min_cycle;Max_cycle;Signal;HPM_P1;HPM_P2
2022/07/17 00:01:37;;;;;;;4.40;2.13;;;18.10;56.80;;;20.78;43.86;102578.00;5095377;28;20236;-60
2022/07/17 00:04:05;;;;;;;3.60;2.20;;;18.00;56.90;;;20.69;44.44;102577.34;5095633;28;20192;-60
2022/07/17 00:06:34;;;;;;;3.63;1.90;;;18.00;57.30;;;20.62;44.21;102589.03;5103253;28;20260;-60
2022/07/17 00:09:03;;;;;;;5.13;2.67;;;17.90;57.50;;;20.56;44.60;102579.13;5115757;28;20660;-60
2022/07/17 00:11:30;;;;;;;5.47;2.20;;;17.80;57.70;;;20.49;44.73;102571.00;5115203;28;20294;-59
2022/07/17 00:13:58;;;;;;;4.00;2.47;;;17.70;57.90;;;20.42;44.99;102572.00;5116090;28;20249;-59
2022/07/17 00:16:26;;;;;;;7.03;2.53;;;17.60;58.10;;;20.35;45.00;102561.22;5115564;28;20603;-59
2022/07/17 00:18:53;;;;;;;5.50;2.57;;;17.60;58.30;;;20.32;45.35;102568.84;5115003;28;20186;-58
2022/07/17 00:21:21;;;;;;;7.47;2.50;;;17.50;58.50;;;20.30;45.71;102563.66;5115064;28;20208;-58
2022/07/17 00:23:50;;;;;;;7.63;2.50;;;17.50;59.50;;;20.31;45.45;102559.16;5102960;28;20189;-60
2022/07/17 00:26:17;;;;;;;8.13;2.37;;;17.50;59.00;;;20.33;45.75;102565.13;5095492;28;20193;-60
2022/07/17 00:28:45;;;;;;;6.80;2.37;;;17.50;58.90;;;20.32;45.33;102571.50;5094066;28;20294;-58
2022/07/17 00:31:12;;;;;;;7.47;2.70;;;17.50;59.00;;;20.30;45.70;102573.56;5094987;28;20204;-59
2022/07/17 00:33:41;;;;;;;7.33;2.80;;;17.50;58.90;;;20.28;45.29;102575.59;5095141;28;20241;-62
2022/07/17 00:36:09;;;;;;;7.83;2.63;;;17.50;58.90;;;20.23;45.46;102574.31;5095475;28;20219;-59
2022/07/17 00:38:36;;;;;;;7.97;3.37;;;17.50;59.10;;;20.20;45.59;102574.69;5095404;28;20192;-59
2022/07/17 00:41:05;;;;;;;4.73;2.30;;;17.40;59.40;;;20.21;45.89;102575.50;5095437;28;20188;-60
2022/07/17 00:43:32;;;;;;;4.83;2.17;;;17.40;59.30;;;20.16;45.89;102576.06;5095488;28;20514;-60
2022/07/17 00:46:03;;;;;;;5.17;2.13;;;17.40;59.30;;;20.13;45.35;102573.78;5094860;28;20185;-61
2022/07/17 00:48:32;;;;;;;7.40;2.20;;;17.40;59.10;;;20.12;46.03;102571.31;5094855;28;20700;-60
2022/07/17 00:50:59;;;;;;;7.97;2.43;;;17.40;59.20;;;20.08;46.14;102565.53;5094498;28;20287;-60
2022/07/17 00:53:31;;;;;;;5.20;2.17;;;17.30;59.20;;;20.07;45.90;102574.56;5094649;28;20212;-61
2022/07/17 00:56:01;;;;;;;4.57;2.30;;;17.30;59.20;;;20.03;45.81;102565.28;5101056;28;20199;-61
2022/07/17 00:58:35;;;;;;;7.37;2.10;;;17.30;59.40;;;20.01;46.00;102570.00;5115136;28;20188;-61
2022/07/17 01:01:08;;;;;;;4.77;2.40;;;17.30;59.70;;;20.01;46.26;102570.00;5114525;28;20184;-60
2022/07/17 01:03:35;;;;;;;7.07;2.47;;;17.20;59.60;;;19.97;45.86;102579.38;5115072;28;20176;-59
2022/07/17 01:06:04;;;;;;;4.80;2.23;;;17.20;59.60;;;19.91;46.04;102576.66;5116056;28;20184;-61
2022/07/17 01:08:33;;;;;;;6.57;2.30;;;17.10;59.70;;;19.85;46.55;102583.59;5115037;28;20632;-60
2022/07/17 01:11:01;;;;;;;6.67;2.10;;;17.10;60.00;;;19.82;46.21;102575.97;5114610;28;20601;-59
2022/07/17 01:13:32;;;;;;;5.73;2.37;;;17.00;60.00;;;19.76;46.24;102579.38;5097340;28;20226;-60
2022/07/17 01:15:59;;;;;;;10.37;5.67;;;17.00;60.30;;;19.73;46.72;102582.41;5094838;28;20526;-60
2022/07/17 01:18:27;;;;;;;6.13;3.30;;;16.90;60.40;;;19.70;46.79;102582.00;5095095;28;20655;-60
2022/07/17 01:20:54;;;;;;;6.90;2.60;;;16.90;60.80;;;19.66;46.97;102586.88;5093925;28;20196;-59
2022/07/17 01:23:23;;;;;;;4.97;2.30;;;16.90;60.80;;;19.63;46.59;102581.94;5094831;28;20181;-60
2022/07/17 01:25:50;;;;;;;5.67;2.30;;;16.80;60.80;;;19.59;46.83;102583.28;5094466;28;20530;-57
2022/07/17 01:28:18;;;;;;;4.67;2.30;;;16.80;61.00;;;19.54;46.80;102583.03;5094787;28;20200;-60
2022/07/17 01:30:48;;;;;;;6.90;2.90;;;16.70;60.90;;;19.50;47.04;102587.09;5093905;28;20509;-59
2022/07/17 01:33:16;;;;;;;4.50;2.10;;;16.70;61.10;;;19.46;46.96;102585.81;5094733;28;20532;-60
2022/07/17 01:35:45;;;;;;;5.60;2.67;;;16.70;61.30;;;19.41;47.32;102578.38;5094012;28;20279;-60
2022/07/17 01:38:12;;;;;;;4.00;2.30;;;16.60;61.50;;;19.38;47.51;102581.41;5093588;28;20184;-60
2022/07/17 01:40:41;;;;;;;6.77;2.70;;;16.60;61.60;;;19.35;47.57;102583.63;5094084;28;20212;-61
2022/07/17 01:43:09;;;;;;;5.97;2.70;;;16.50;61.80;;;19.33;47.61;102586.44;5094353;28;20201;-59
2022/07/17 01:45:37;;;;;;;4.23;2.50;;;16.50;62.00;;;19.32;47.80;102589.31;5105385;28;20314;-60
2022/07/17 01:48:05;;;;;;;6.33;2.20;;;16.50;62.10;;;19.30;47.91;102586.00;5114845;28;20184;-60
2022/07/17 01:50:33;;;;;;;5.73;2.73;;;16.50;62.40;;;19.30;47.79;102588.69;5114715;28;20214;-60
2022/07/17 01:53:01;;;;;;;3.50;2.60;;;16.50;62.50;;;19.27;47.80;102589.03;5114821;28;20676;-60
2022/07/17 01:55:28;;;;;;;4.93;2.60;;;16.40;62.40;;;19.24;47.92;102584.06;5114409;28;20191;-60
2022/07/17 01:57:57;;;;;;;4.67;2.40;;;16.40;62.50;;;19.21;47.89;102581.75;5114616;28;20184;-60
2022/07/17 02:00:25;;;;;;;6.83;2.60;;;16.40;62.70;;;19.18;48.10;102587.50;5113855;28;20188;-60
2022/07/17 02:02:53;;;;;;;5.63;2.33;;;16.40;62.90;;;19.14;47.97;102586.19;5113415;28;20227;-60
2022/07/17 02:05:20;;;;;;;6.07;3.00;;;16.30;62.70;;;19.11;48.12;102589.25;5114115;28;20188;-60
2022/07/17 02:07:47;;;;;;;7.77;2.77;;;16.30;63.00;;;19.06;48.26;102588.97;5113941;28;20195;-60
2022/07/17 02:10:15;;;;;;;3.90;2.53;;;16.20;63.20;;;19.04;48.49;102585.66;5113909;28;20611;-60
2022/07/17 02:12:44;;;;;;;3.87;2.40;;;16.30;63.50;;;19.02;48.81;102583.16;5113224;28;20220;-60
2022/07/17 02:15:13;;;;;;;6.00;2.33;;;16.20;63.60;;;18.99;48.68;102583.56;5114100;28;20214;-60
2022/07/17 02:17:42;;;;;;;6.63;2.70;;;16.20;63.80;;;18.98;48.71;102589.06;5109547;28;20672;-59
2022/07/17 02:20:11;;;;;;;4.83;2.33;;;16.20;63.90;;;18.97;49.02;102579.41;5092934;28;20552;-60
2022/07/17 02:22:40;;;;;;;4.90;2.60;;;16.10;63.90;;;18.96;49.00;102588.41;5092750;28;20208;-60
2022/07/17 02:25:09;;;;;;;6.53;3.00;;;16.10;64.00;;;18.92;48.89;102583.44;5093587;28;20203;-60
2022/07/17 02:27:37;;;;;;;5.80;2.80;;;16.10;64.30;;;18.89;48.95;102583.81;5092041;28;20200;-59
2022/07/17 02:30:10;;;;;;;4.87;2.10;;;16.00;64.30;;;18.85;48.71;102587.03;5091175;28;20206;-60
2022/07/17 02:32:39;;;;;;;7.20;2.67;;;16.00;64.40;;;18.85;49.48;102592.38;5092354;28;20212;-59
2022/07/17 02:35:10;;;;;;;3.53;2.20;;;16.00;64.70;;;18.86;49.47;102599.34;5105407;28;20198;-59
2022/07/17 02:37:39;;;;;;;5.00;2.27;;;16.00;64.90;;;18.88;49.49;102590.16;5112687;28;20191;-60
2022/07/17 02:40:08;;;;;;;11.43;2.57;;;16.00;64.90;;;18.89;49.37;102601.66;5113182;28;20255;-60
2022/07/17 02:42:36;;;;;;;4.67;2.40;;;16.00;64.90;;;18.90;49.56;102592.63;5112897;28;20203;-60
2022/07/17 02:45:06;;;;;;;4.53;2.33;;;16.00;64.90;;;18.90;49.62;102601.47;5112857;28;20215;-60
2022/07/17 02:47:36;;;;;;;4.90;2.13;;;16.10;65.20;;;18.93;49.67;102605.63;5113740;28;20192;-61
2022/07/17 02:50:08;;;;;;;7.03;2.93;;;16.00;65.20;;;18.93;49.48;102617.13;5113197;28;20295;-60
2022/07/17 02:52:36;;;;;;;4.50;2.57;;;16.10;65.20;;;18.94;49.55;102613.44;5093377;28;20247;-60
2022/07/17 02:55:05;;;;;;;4.83;2.47;;;16.10;65.30;;;18.94;49.79;102618.78;5092845;28;20189;-60
2022/07/17 02:57:33;;;;;;;5.37;2.73;;;16.10;65.30;;;18.96;49.51;102621.28;5092938;28;20637;-60
2022/07/17 03:00:00;;;;;;;4.37;2.50;;;16.10;65.20;;;18.92;49.44;102631.47;5093080;28;20221;-60
2022/07/17 03:02:28;;;;;;;3.93;1.97;;;16.10;65.20;;;18.88;49.48;102630.19;5092686;28;20209;-60
2022/07/17 03:04:55;;;;;;;7.53;2.97;;;16.10;65.10;;;18.85;49.50;102633.22;5093523;28;20192;-60
2022/07/17 03:07:24;;;;;;;4.87;2.47;;;16.00;65.10;;;18.83;49.51;102637.06;5094478;28;20196;-60
2022/07/17 03:09:51;;;;;;;4.57;2.47;;;16.00;65.20;;;18.82;49.64;102630.94;5092956;28;20634;-60
2022/07/17 03:12:18;;;;;;;4.57;2.27;;;16.00;65.30;;;18.80;49.59;102632.94;5092496;28;20297;-60
2022/07/17 03:14:46;;;;;;;3.17;2.23;;;16.00;65.60;;;18.78;49.74;102642.97;5092995;28;20210;-59
2022/07/17 03:17:16;;;;;;;9.63;2.60;;;16.00;65.60;;;18.75;49.78;102639.84;5093283;28;20212;-59
2022/07/17 03:19:44;;;;;;;4.37;2.23;;;15.90;65.60;;;18.72;49.87;102637.53;5093064;28;20247;-61
2022/07/17 03:22:12;;;;;;;5.13;2.47;;;15.90;65.70;;;18.70;49.81;102628.88;5092417;28;20214;-60
2022/07/17 03:24:40;;;;;;;4.60;2.10;;;15.90;65.70;;;18.69;50.23;102620.03;5093925;28;20637;-59
2022/07/17 03:27:08;;;;;;;4.27;2.20;;;15.90;66.00;;;18.72;50.20;102613.50;5091101;28;20188;-60
2022/07/17 03:29:36;;;;;;;3.30;2.00;;;15.90;66.10;;;18.73;50.04;102602.66;5092466;28;20199;-60
2022/07/17 03:32:04;;;;;;;2.93;2.30;;;15.90;66.00;;;18.73;50.24;102599.97;5093668;28;20208;-60
2022/07/17 03:34:32;;;;;;;4.40;2.50;;;15.90;66.10;;;18.74;50.23;102590.97;5112798;28;20231;-60
2022/07/17 03:37:00;;;;;;;5.90;2.83;;;15.90;66.40;;;18.78;50.43;102578.09;5113167;28;20218;-59
2022/07/17 03:39:27;;;;;;;5.80;2.50;;;15.90;66.20;;;18.84;50.25;102570.19;5113714;28;20194;-60
2022/07/17 03:41:56;;;;;;;6.70;2.50;;;16.00;66.30;;;18.90;50.03;102580.13;5111020;28;20575;-59
2022/07/17 03:44:24;;;;;;;8.13;2.60;;;16.00;66.10;;;18.92;50.17;102591.44;5113197;28;20184;-60
2022/07/17 03:46:51;;;;;;;5.00;2.50;;;16.10;66.10;;;18.98;49.67;102602.41;5113769;28;20192;-60
2022/07/17 03:49:19;;;;;;;6.33;2.90;;;16.10;65.70;;;19.00;49.85;102614.56;5112758;28;20636;-60
2022/07/17 03:51:47;;;;;;;4.10;2.37;;;16.10;65.40;;;18.99;49.61;102612.06;5111965;28;20207;-59
2022/07/17 03:54:14;;;;;;;5.80;2.40;;;16.20;65.10;;;18.96;49.55;102620.44;5116225;28;20219;-60
2022/07/17 03:56:42;;;;;;;5.83;2.30;;;16.10;65.00;;;18.91;49.50;102640.50;5115538;28;20183;-60
2022/07/17 03:59:11;;;;;;;4.93;2.53;;;16.10;65.00;;;18.88;49.92;102643.53;5115473;28;20578;-60
2022/07/17 04:01:38;;;;;;;5.50;2.40;;;16.10;65.40;;;18.87;49.92;102644.53;5115775;28;20207;-60
2022/07/17 04:04:06;;;;;;;4.57;2.50;;;16.00;65.60;;;18.91;49.79;102645.84;5116092;28;20180;-59
2022/07/17 04:06:33;;;;;;;6.70;2.47;;;16.00;65.80;;;18.92;49.86;102652.81;5116172;28;20211;-59
2022/07/17 04:09:01;;;;;;;3.93;2.67;;;16.10;65.90;;;18.93;49.91;102657.16;5116172;28;20510;-59
2022/07/17 04:11:28;;;;;;;9.00;3.07;;;16.00;65.80;;;18.89;49.87;102642.53;5115930;28;20204;-60
2022/07/17 04:13:56;;;;;;;6.00;2.77;;;16.00;65.60;;;18.84;49.65;102644.09;5115245;28;20196;-57
2022/07/17 04:16:25;;;;;;;5.60;2.63;;;16.00;65.60;;;18.79;50.00;102636.63;5116154;28;20542;-59
2022/07/17 04:18:53;;;;;;;4.23;2.83;;;16.00;65.70;;;18.77;50.07;102646.66;5116324;27;20248;-59
2022/07/17 04:21:20;;;;;;;4.33;2.30;;;16.00;66.00;;;18.73;49.93;102640.00;5116019;28;20214;-59
2022/07/17 04:23:48;;;;;;;5.50;2.90;;;15.90;66.00;;;18.70;50.00;102632.38;5116784;28;20188;-60
2022/07/17 04:26:15;;;;;;;8.07;2.90;;;15.80;66.10;;;18.66;50.04;102623.06;5116371;28;20199;-60
2022/07/17 04:28:45;;;;;;;4.97;2.43;;;15.80;66.30;;;18.64;50.16;102633.09;5116725;28;20683;-60
2022/07/17 04:31:12;;;;;;;5.90;2.30;;;15.80;66.40;;;18.63;50.22;102642.13;5113701;28;20246;-58
2022/07/17 04:33:41;;;;;;;7.27;3.03;;;15.70;66.50;;;18.64;50.29;102641.09;5116034;28;20216;-58
2022/07/17 04:36:09;;;;;;;6.73;2.70;;;15.70;66.80;;;18.63;50.50;102631.44;5116865;28;20195;-59
2022/07/17 04:38:36;;;;;;;5.93;2.50;;;15.70;66.90;;;18.61;50.49;102622.78;5116790;28;20570;-60
2022/07/17 04:41:04;;;;;;;7.47;2.70;;;15.70;66.90;;;18.62;50.61;102629.78;5116136;28;20668;-59
2022/07/17 04:43:31;;;;;;;6.17;2.80;;;15.70;67.10;;;18.63;50.73;102627.94;5116176;28;20574;-57
2022/07/17 04:45:59;;;;;;;7.70;3.43;;;15.70;67.20;;;18.64;50.68;102630.41;5115128;28;20184;-60
2022/07/17 04:48:26;;;;;;;4.20;2.47;;;15.80;68.20;;;18.69;50.79;102630.72;5114991;28;20195;-59
2022/07/17 04:50:55;;;;;;;7.63;2.83;;;15.70;67.50;;;18.73;50.71;102637.34;5116081;28;20668;-59
2022/07/17 04:53:22;;;;;;;4.77;2.30;;;15.70;67.50;;;18.76;50.64;102630.81;5115960;28;20212;-62
2022/07/17 04:55:50;;;;;;;3.20;2.53;;;15.80;68.40;;;18.78;50.52;102626.94;5115933;28;20704;-60
2022/07/17 04:58:18;;;;;;;5.10;2.83;;;15.80;67.50;;;18.81;50.55;102629.25;5116037;28;20192;-58
2022/07/17 05:00:46;;;;;;;6.50;3.27;;;15.80;67.60;;;18.85;50.56;102632.41;5115535;28;20570;-57
2022/07/17 05:03:14;;;;;;;6.63;3.13;;;15.80;67.50;;;18.87;50.39;102643.72;5113490;28;20701;-59
2022/07/17 05:05:41;;;;;;;5.60;3.03;;;15.80;67.50;;;18.87;50.30;102644.53;5115783;28;20188;-58
2022/07/17 05:08:10;;;;;;;4.27;2.80;;;15.90;67.60;;;18.90;50.60;102633.50;5117421;27;20192;-60
2022/07/17 05:10:38;;;;;;;7.60;2.63;;;15.90;67.70;;;18.97;50.56;102627.44;5116360;28;20687;-59
2022/07/17 05:13:05;;;;;;;4.37;2.47;;;15.90;67.70;;;19.01;50.40;102623.41;5115534;28;20227;-60
2022/07/17 05:15:33;;;;;;;4.33;2.53;;;15.90;67.70;;;19.07;50.39;102612.81;5115570;28;20195;-59
2022/07/17 05:18:08;;;;;;;5.87;2.50;;;16.00;67.60;;;19.18;50.37;102614.19;5115582;28;20223;-60
2022/07/17 05:20:35;;;;;;;4.00;2.40;;;16.10;67.60;;;19.24;50.06;102618.78;5113424;28;20198;-60
2022/07/17 05:23:03;;;;;;;4.07;2.00;;;16.10;67.30;;;19.30;50.11;102618.06;5115198;28;20208;-59
2022/07/17 05:25:32;;;;;;;7.30;2.97;;;16.20;67.10;;;19.36;49.59;102623.50;5115169;28;20184;-59
2022/07/17 05:28:01;;;;;;;6.53;2.43;;;16.30;66.90;;;19.41;49.55;102631.78;5115243;28;20719;-58
2022/07/17 05:30:29;;;;;;;3.90;2.03;;;16.30;66.70;;;19.44;49.75;102639.44;5114893;28;20187;-60
2022/07/17 05:32:57;;;;;;;6.40;2.50;;;16.30;66.60;;;19.47;49.60;102635.53;5114671;28;20231;-60
2022/07/17 05:35:24;;;;;;;4.50;2.33;;;16.40;66.50;;;19.50;49.77;102630.69;5115029;28;20560;-58
2022/07/17 05:37:51;;;;;;;6.90;2.30;;;16.40;66.50;;;19.58;49.52;102637.75;5113645;28;20202;-59
2022/07/17 05:40:19;;;;;;;7.10;2.23;;;16.50;66.40;;;19.62;49.25;102632.84;5115401;27;20191;-60
2022/07/17 05:42:47;;;;;;;4.43;2.30;;;16.50;66.20;;;19.66;49.36;102634.97;5114744;28;20211;-61
2022/07/17 05:45:15;;;;;;;3.57;1.93;;;16.50;66.00;;;19.70;49.15;102630.09;5114951;28;20190;-60
2022/07/17 05:47:42;;;;;;;4.33;2.30;;;16.60;66.00;;;19.74;49.28;102637.53;5115275;27;20199;-60
2022/07/17 05:50:09;;;;;;;6.60;2.30;;;16.60;66.10;;;19.78;49.26;102646.81;5115270;28;20207;-59
2022/07/17 05:52:37;;;;;;;3.60;2.23;;;16.60;66.20;;;19.81;49.22;102630.41;5112913;28;20212;-60
2022/07/17 05:55:05;;;;;;;6.43;2.00;;;16.70;66.00;;;19.84;48.95;102632.72;5114946;28;20211;-59
2022/07/17 05:57:33;;;;;;;3.50;2.07;;;16.70;65.80;;;19.88;48.81;102625.97;5114921;28;20188;-59
2022/07/17 06:00:04;;;;;;;5.23;2.47;;;16.80;65.70;;;19.94;48.88;102627.91;5115053;28;20184;-60
2022/07/17 06:02:31;;;;;;;3.47;2.17;;;16.80;65.60;;;19.99;48.71;102624.66;5114274;28;20505;-59
2022/07/17 06:04:58;;;;;;;4.20;1.93;;;16.90;65.40;;;20.03;48.88;102626.75;5114801;28;20209;-60
2022/07/17 06:07:26;;;;;;;2.43;1.60;;;16.90;66.00;;;20.10;48.63;102624.16;5114645;28;20279;-60
2022/07/17 06:09:53;;;;;;;4.10;1.80;;;17.00;65.90;;;20.16;48.33;102629.56;5112790;28;20201;-60
2022/07/17 06:12:21;;;;;;;3.37;2.10;;;17.00;64.90;;;20.28;48.41;102634.44;5114848;28;20665;-60
2022/07/17 06:14:48;;;;;;;8.57;2.50;;;17.10;64.80;;;20.40;47.72;102639.06;5114838;28;20207;-59
2022/07/17 06:17:17;;;;;;;5.67;2.03;;;17.20;64.70;;;20.54;47.56;102640.03;5114248;28;20184;-60
2022/07/17 06:19:44;;;;;;;2.60;1.83;;;17.30;64.60;;;20.67;47.21;102640.97;5114717;28;20188;-57
2022/07/17 06:22:11;;;;;;;3.43;1.73;;;17.40;64.40;;;20.76;47.52;102644.31;5114375;28;20218;-58
2022/07/17 06:24:38;;;;;;;5.40;2.40;;;17.50;64.20;;;20.83;47.39;102651.38;5114750;28;20188;-58
2022/07/17 06:27:06;;;;;;;3.63;2.10;;;17.60;63.80;;;20.87;47.11;102652.63;5112495;28;20198;-60
2022/07/17 06:29:33;;;;;;;3.33;2.17;;;17.60;64.20;;;20.89;46.91;102645.22;5113896;28;20684;-60
2022/07/17 06:32:01;;;;;;;3.87;1.70;;;17.70;63.40;;;20.93;47.09;102640.31;5113735;28;20235;-59
2022/07/17 06:34:30;;;;;;;7.93;2.40;;;17.70;63.20;;;20.99;46.87;102642.19;5113888;28;20219;-60
2022/07/17 06:36:57;;;;;;;3.07;2.00;;;17.80;63.10;;;21.03;46.91;102646.16;5113394;28;20198;-60
2022/07/17 06:39:24;;;;;;;6.07;1.97;;;17.80;62.90;;;21.06;46.31;102659.16;5114501;28;20214;-59
2022/07/17 06:41:52;;;;;;;3.93;1.90;;;17.90;62.80;;;21.12;46.34;102666.44;5111047;27;20261;-58
2022/07/17 06:44:19;;;;;;;4.50;2.20;;;17.90;62.70;;;21.15;46.77;102665.22;5093653;28;20188;-60
2022/07/17 06:46:46;;;;;;;5.20;2.43;;;18.00;62.80;;;21.19;46.55;102667.31;5093577;28;20203;-58
2022/07/17 06:49:14;;;;;;;9.60;2.40;;;18.00;62.80;;;21.24;46.42;102672.91;5093753;28;20643;-58
2022/07/17 06:51:45;;;;;;;4.80;2.07;;;18.10;62.80;;;21.33;46.51;102685.09;5093075;28;20208;-61
2022/07/17 06:54:12;;;;;;;6.87;2.37;;;18.10;62.70;;;21.38;46.16;102690.69;5094013;28;20227;-59
2022/07/17 06:56:40;;;;;;;3.57;1.83;;;18.20;62.60;;;21.39;46.55;102684.31;5093638;28;20192;-60
2022/07/17 06:59:08;;;;;;;4.20;2.00;;;18.30;62.60;;;21.43;45.99;102695.47;5103688;28;20545;-61
2022/07/17 07:01:36;;;;;;;3.50;2.20;;;18.30;62.50;;;21.44;46.08;102697.94;5112911;28;20633;-61
2022/07/17 07:04:08;;;;;;;4.30;1.87;;;18.30;62.40;;;21.49;46.52;102700.84;5114341;28;20193;-60
2022/07/17 07:06:35;;;;;;;6.67;2.07;;;18.40;62.40;;;21.56;46.46;102706.28;5113067;28;20204;-61
2022/07/17 07:09:04;;;;;;;7.23;2.10;;;18.40;62.30;;;21.66;46.18;102700.50;5113130;28;20198;-59
2022/07/17 07:11:32;;;;;;;5.80;2.23;;;18.50;62.40;;;21.77;46.01;102700.78;5113399;28;20210;-59
2022/07/17 07:13:59;;;;;;;6.77;2.27;;;18.50;62.20;;;21.92;45.63;102701.47;5113703;28;20200;-59
2022/07/17 07:16:27;;;;;;;7.87;1.57;;;18.60;61.70;;;22.11;45.31;102697.19;5112073;28;20200;-60
2022/07/17 07:18:54;;;;;;;5.37;2.10;;;18.80;61.60;;;22.33;45.25;102696.03;5113869;28;20202;-61
2022/07/17 07:21:23;;;;;;;4.43;1.93;;;18.90;61.20;;;22.52;44.15;102702.44;5113118;28;20255;-60
2022/07/17 07:23:50;;;;;;;4.93;1.70;;;19.10;60.50;;;22.62;43.98;102698.38;5113428;28;20180;-60
2022/07/17 07:26:19;;;;;;;5.33;1.80;;;19.20;59.90;;;22.68;43.59;102691.34;5113883;28;20194;-60
2022/07/17 07:28:46;;;;;;;3.60;1.60;;;19.30;59.30;;;22.73;43.55;102697.75;5117385;27;20196;-59
2022/07/17 07:31:16;;;;;;;4.60;1.63;;;19.40;59.70;;;22.75;43.30;102703.72;5116407;28;20306;-59
2022/07/17 07:33:44;;;;;;;5.23;2.00;;;19.50;58.70;;;22.79;43.24;102694.25;5096473;28;20200;-59
2022/07/17 07:36:12;;;;;;;2.63;1.70;;;19.60;58.50;;;22.84;43.17;102701.69;5097454;28;20184;-59
2022/07/17 07:38:47;;;;;;;3.53;1.60;;;19.60;58.00;;;22.88;42.84;102703.75;5097456;28;20545;-59
2022/07/17 07:41:15;;;;;;;3.80;1.43;;;19.70;57.90;;;22.95;42.67;102701.03;5097037;28;20216;-60
2022/07/17 07:43:44;;;;;;;5.93;1.70;;;19.80;57.50;;;23.02;42.42;102706.41;5097258;28;20188;-60
2022/07/17 07:46:11;;;;;;;4.47;1.60;;;19.90;57.50;;;23.16;42.21;102716.94;5096567;28;20195;-61
2022/07/17 07:48:38;;;;;;;4.47;1.20;;;20.00;57.20;;;23.33;41.90;102710.09;5098146;28;20653;-59
2022/07/17 07:51:06;;;;;;;2.43;1.70;;;20.10;57.00;;;23.54;41.56;102714.41;5096757;28;20607;-58
2022/07/17 07:53:33;;;;;;;5.47;1.90;;;20.20;56.90;;;23.75;41.19;102716.00;5096966;28;20192;-59
2022/07/17 07:56:01;;;;;;;5.33;1.90;;;20.30;55.90;;;23.95;40.44;102714.88;5097214;28;20489;-59
2022/07/17 07:58:28;;;;;;;7.50;2.33;;;20.40;55.60;;;24.16;39.85;102714.56;5096613;28;20536;-59
2022/07/17 08:00:57;;;;;;;7.17;2.03;;;20.60;55.40;;;24.38;39.54;102725.00;5096464;28;20189;-59
2022/07/17 08:03:24;;;;;;;4.90;1.83;;;20.80;55.20;;;24.50;39.60;102720.56;5096633;28;20357;-60
2022/07/17 08:05:52;;;;;;;4.50;1.77;;;20.90;55.00;;;24.62;39.33;102718.81;5097324;28;20245;-60
2022/07/17 08:08:19;;;;;;;2.70;1.57;;;21.00;54.80;;;24.69;39.53;102716.91;5096812;28;20192;-58
2022/07/17 08:10:46;;;;;;;5.03;1.77;;;21.10;54.50;;;24.83;39.30;102710.38;5096204;28;20192;-61
2022/07/17 08:13:14;;;;;;;5.20;1.67;;;21.20;54.50;;;24.98;39.23;102727.06;5096833;28;20189;-59
2022/07/17 08:15:42;;;;;;;2.37;1.40;;;21.30;54.50;;;25.07;38.79;102714.94;5096733;28;20665;-59
2022/07/17 08:18:11;;;;;;;3.33;1.80;;;21.40;54.20;;;25.07;38.72;102706.84;5096541;28;20185;-61
2022/07/17 08:20:39;;;;;;;6.27;1.70;;;21.50;53.70;;;25.17;38.77;102717.13;5096179;28;20534;-60
2022/07/17 08:23:08;;;;;;;8.87;2.17;;;21.60;54.00;;;25.44;38.71;102719.34;5096486;28;20209;-59
2022/07/17 08:25:35;;;;;;;6.53;1.70;;;21.70;53.90;;;25.95;37.53;102716.25;5096184;28;20192;-61
2022/07/17 08:28:04;;;;;;;3.13;1.77;;;21.90;54.00;;;26.29;37.51;102722.88;5094530;28;20220;-60
2022/07/17 08:30:34;;;;;;;5.00;2.57;;;22.10;53.10;;;26.48;36.23;102715.50;5095814;28;20195;-59
2022/07/17 08:33:04;;;;;;;5.03;1.63;;;22.30;52.00;;;26.52;36.07;102728.31;5096290;28;20215;-60
2022/07/17 08:35:34;;;;;;;4.47;1.70;;;22.50;51.70;;;26.77;35.59;102720.88;5096203;28;20661;-60
2022/07/17 08:38:02;;;;;;;3.23;1.53;;;22.70;51.40;;;27.02;35.11;102733.34;5096165;28;20220;-63
2022/07/17 08:40:32;;;;;;;4.67;2.67;;;22.90;50.60;;;27.15;34.85;102738.50;5096102;28;20188;-59
2022/07/17 08:43:04;;;;;;;6.57;2.30;;;23.00;50.10;;;27.62;34.46;102736.63;5095677;28;20980;-61
2022/07/17 08:45:31;;;;;;;6.40;2.23;;;23.30;50.30;;;28.03;34.20;102726.38;5096012;28;20198;-60
2022/07/17 08:48:00;;;;;;;6.50;2.03;;;23.50;50.40;;;28.11;33.33;102736.84;5095951;28;20212;-61
2022/07/17 08:50:30;;;;;;;5.40;1.87;;;23.80;48.60;;;28.57;32.81;102737.66;5095425;28;20189;-60
2022/07/17 08:53:01;;;;;;;5.77;2.33;;;24.00;48.20;;;29.24;31.92;102733.09;5095792;28;20718;-61
2022/07/17 08:55:29;;;;;;;3.57;1.90;;;24.20;47.40;;;30.19;30.19;102747.00;5096138;28;20218;-60
2022/07/17 08:57:57;;;;;;;2.13;1.40;;;24.70;46.80;;;31.44;29.11;102735.53;5095042;28;20197;-59
2022/07/17 09:00:26;;;;;;;2.83;1.63;;;25.20;45.80;;;32.87;27.42;102736.41;5094237;28;20184;-60
2022/07/17 09:02:57;;;;;;;6.00;1.83;;;26.00;45.00;;;34.27;25.70;102738.88;5095418;28;20288;-59
2022/07/17 09:05:28;;;;;;;4.50;1.90;;;26.80;43.30;;;35.59;23.46;102731.84;5095973;28;20196;-60
2022/07/17 09:07:56;;;;;;;5.77;3.00;;;27.50;40.40;;;35.71;21.99;102737.72;5095512;28;20196;-59
2022/07/17 09:10:35;;;;;;;3.73;2.07;;;28.20;37.00;;;35.65;22.34;102740.81;5094837;28;20203;-59
2022/07/17 09:13:18;;;;;;;3.30;2.83;;;28.60;36.20;;;36.01;22.55;102736.50;5114034;28;20674;-61
2022/07/17 09:15:49;;;;;;;3.70;2.60;;;29.00;35.50;;;36.41;22.45;102735.03;5116357;28;20203;-56
2022/07/17 09:18:17;;;;;;;3.40;1.90;;;29.30;34.80;;;36.92;21.17;102733.06;5115964;28;20671;-57
2022/07/17 09:20:48;;;;;;;3.00;1.73;;;29.70;34.60;;;37.62;21.07;102727.28;5115018;28;20398;-62
2022/07/17 09:23:18;;;;;;;3.67;1.90;;;30.10;33.60;;;38.45;20.24;102723.97;5115489;28;20351;-58
2022/07/17 09:25:50;;;;;;;2.03;1.40;;;30.60;33.30;;;39.10;19.31;102713.13;5115280;27;20194;-58
2022/07/17 09:28:20;;;;;;;3.97;1.87;;;31.00;32.20;;;39.81;18.41;102718.19;5113189;28;20192;-59
2022/07/17 09:30:51;;;;;;;2.88;1.67;;;31.40;31.30;;;40.52;17.61;102713.94;5115359;28;20597;-60
2022/07/17 09:33:22;;;;;;;2.85;1.65;;;31.90;30.90;;;41.01;17.14;102712.44;5113831;28;20183;-60
2022/07/17 09:35:52;;;;;;;2.92;2.30;;;32.30;29.10;;;41.13;16.96;102704.25;5115378;28;20211;-60
2022/07/17 09:38:35;;;;;;;2.33;1.42;;;32.60;28.50;;;41.17;16.68;102710.75;5115207;28;20267;-59
2022/07/17 09:41:14;;;;;;;2.58;1.55;;;32.80;27.60;;;41.56;16.65;102711.47;5114583;28;20192;-60
2022/07/17 09:43:50;;;;;;;3.33;1.55;;;33.10;27.90;;;42.02;16.46;102707.72;5112866;28;20191;-59
2022/07/17 09:46:20;;;;;;;5.18;2.28;;;33.30;27.70;;;42.34;16.10;102710.50;5114957;28;20206;-60
2022/07/17 09:48:52;;;;;;;2.92;1.73;;;33.60;27.70;;;42.75;15.76;102711.50;5114360;28;20192;-60
2022/07/17 09:51:23;;;;;;;1.45;1.25;;;33.90;27.10;;;42.88;15.50;102702.06;5113776;28;20287;-60
2022/07/17 09:53:55;;;;;;;2.50;1.60;;;34.00;26.90;;;42.96;14.99;102696.41;5114192;28;20182;-60
2022/07/17 09:56:28;;;;;;;1.52;1.40;;;34.20;25.90;;;42.79;15.05;102699.41;5114633;28;20238;-60
2022/07/17 09:59:02;;;;;;;2.25;1.60;;;34.40;26.10;;;42.82;15.31;102709.78;5114391;28;20191;-59
2022/07/17 10:01:30;;;;;;;3.55;2.38;;;34.50;25.60;;;42.87;14.73;102700.44;5111862;28;20212;-61
2022/07/17 10:03:57;;;;;;;3.08;1.92;;;34.60;25.90;;;43.07;14.46;102700.34;5113707;28;20632;-58
2022/07/17 10:06:26;;;;;;;2.88;1.70;;;34.70;25.30;;;43.26;14.38;102696.97;5114117;28;20192;-60
2022/07/17 10:08:55;;;;;;;1.85;1.70;;;34.80;25.50;;;43.52;14.09;102700.19;5114319;28;20184;-60
2022/07/17 10:11:28;;;;;;;4.20;2.03;;;34.80;24.80;;;43.53;14.10;102695.44;5113688;28;20204;-58
2022/07/17 10:14:05;;;;;;;2.47;1.90;;;34.90;24.60;;;43.45;14.13;102694.41;5114492;28;20194;-60
2022/07/17 10:16:36;;;;;;;2.17;1.90;;;35.00;24.50;;;43.11;14.18;102706.00;5096112;28;20207;-60
2022/07/17 10:19:17;;;;;;;4.00;2.13;;;35.00;24.20;;;43.00;14.24;102694.59;5093959;28;20207;-60